Bemidji Regional Airport
KBJI : now visible

Airfield :











YOU CAN JOIN US ON...

 
LOGIN :

Register | Disclaimer

   EN    FR    IT 

 









Legend :    VFR   Marginal VFR   IFR   Intensive IFR   Very Intensive IFR
Visi :
Ceiling :
>= 8 km
>= 3000ft
5 to 8 km
1000 to 3000 ft
1500m to 5 km
500 to 1000 ft
800 to 1500m
200 to 500 ft
< 800m
< 200 ft
Symbols :   Thunderstorms  Fog  Heavy snow  Heavy precipitations  Wind > 20 kt






- Airport Elevation : 1391 ft


KBJI - Bemidji Regional

CURRENT METAR :
  • 262335Z AUTO 23006KT 10SM CLR M06/M14 A3025 RMK AO2 T10561140

EXPIRED METARs :
  • 262315Z AUTO 23006KT 10SM CLR M05/M14 A3025 RMK AO2 T10521136
  • 262255Z AUTO 23008KT 10SM CLR M05/M13 A3025 RMK AO2 T10471131
  • 262235Z AUTO 25007KT 10SM CLR M04/M13 A3025 RMK AO2 T10421134
  • 262215Z AUTO 23008KT 10SM CLR M04/M13 A3025 RMK AO2 T10411130
  • 262155Z AUTO 26009KT 10SM SCT039 M04/M12 A3024 RMK AO2 T10401125
  • 262135Z AUTO 25007KT 10SM BKN039 M03/M12 A3025 RMK AO2 T10351118
  • 262115Z AUTO 28010KT 10SM BKN041 M04/M12 A3025 RMK AO2 T10421119
  • 262055Z AUTO 26009KT 10SM SCT043 M04/M13 A3026 RMK AO2 T10401126

TAF KBJI
Valid from the 27 at 00:00 until the 28 at 00:00 UTC


262331Z 2700/2724 23008KT P6SM SKC
FM271700 21014G21KT P6SM OVC150
FM272100 21015G21KT P6SM -SN OVC090
KZMP FIR / North America



MET'MAP, your aeronautical weather chart ! - Copyright ORBIFLY December 2007 - Disclaimer

ORBIFLY MET'MAP TEAM :

Programming & Development : Alexandra Zaïnal
Concept & original design : Baudouin d'Aumeries
Assistance for programming : Marc-Olivier Méhu
Technical & hardware support : Manuel Goepfert

Contact : metmap@orbifly.com




SOURCES & CREDITS :

   NOAA       Earth
Advisory